Flint, MI (48557)

2:16 PM EDT on June 30, 2015 (GMT -0400)
Dave Grand Blanc | | Change Station
CLOSE
Current Station
Personal Weather Station
Location: Grand Blanc, MI
Elevation: 797 ft
Nearby Weather Stations

Elev 797 ft 42.95 °N, 83.67 °W | Updated 3 seconds ago

Overcast
Overcast
76.0 °F
Feels Like 78 °F
N
1.1
Wind Variable Wind from NNW
Gusts 1.8 mph

Today
High -- | Low -- °F
--% Chance of Precip.
Yesterday
High -- | Low -- °F
Precip. -- in
5:58 AM 9:17 PM
Waxing Gibbous, 98% visible
Pressure 29.77 in
Visibility 10.0 miles
Clouds Few 2500 ft
Scattered Clouds 5000 ft
Heat Index 78 °F
Dew Point 62 °F
Humidity 62%
Rainfall in
Snow Depth Not available.
UV 9 out of 12
Pollen 3.20 out of 12
Air Quality Not available.
Flu Activity Sporadic
METAR KFNT 301753Z VRB03KT 10SM FEW025 SCT050 23/14 A2978 RMK AO2 SLP081 T02330144 10239 20183 58009

More Conditions Fewer Conditions

Pressure 29.77 in
Visibility 10.0 miles
Clouds Few 2500 ft
Scattered Clouds 5000 ft
Heat Index 78 °F
Dew Point 62 °F
Humidity 62%
Rainfall in
Snow Depth Not available.
UV 9 out of 12
Pollen 3.20 out of 12
Air Quality Not available.
Flu Activity Sporadic
METAR KFNT 301753Z VRB03KT 10SM FEW025 SCT050 23/14 A2978 RMK AO2 SLP081 T02330144 10239 20183 58009

More Conditions Fewer Conditions

10-Day Weather Forecast

×

Almanac

Astronomy

Jun. 30, 2015 Rise Set
Actual Time
Civil Twilight
Nautical Twilight
Astronomical Twilight
Moon
Length of Visible Light
Length of Day
Tomorrow will be .
, % of the Moon is Illuminated

Today's Extremes

State Highs State Lows

Community

WunderPhotos

Upload Photos

1,834,044 photos uploaded!

WunderBlogs® & News

Nearby

Air Quality

  Air Quality AQ Index Pollutant
Not available.

Snow Depth

Station Depth Elevation

Earthquake Activity

City Distance Mag. Time & Date
Minimum magnitude displayed is 2.5.

Coastal Water Temperatures

Place Temperature

Stations

Nearby Weather Stations

Station Location Temp. Windchill Dew Point Humidity Wind Precip. Elev Updated Type